sensor_id;sensor_type;location;lat;lon;timestamp;P1;durP1;ratioP1;P2;durP2;ratioP2
7571;SDS011;3827;49.928;8.548;2023-04-22T00:00:08;4.00;;;3.70;;
7571;SDS011;3827;49.928;8.548;2023-04-22T00:02:37;4.00;;;3.70;;
7571;SDS011;3827;49.928;8.548;2023-04-22T00:05:05;4.40;;;4.10;;
7571;SDS011;3827;49.928;8.548;2023-04-22T00:07:34;4.60;;;4.20;;
7571;SDS011;3827;49.928;8.548;2023-04-22T00:10:01;4.70;;;4.20;;
7571;SDS011;3827;49.928;8.548;2023-04-22T00:12:28;5.50;;;5.00;;
7571;SDS011;3827;49.928;8.548;2023-04-22T00:14:55;6.15;;;5.65;;
7571;SDS011;3827;49.928;8.548;2023-04-22T00:17:21;5.70;;;5.20;;
7571;SDS011;3827;49.928;8.548;2023-04-22T00:19:49;6.00;;;5.47;;
7571;SDS011;3827;49.928;8.548;2023-04-22T00:22:15;6.05;;;5.55;;
7571;SDS011;3827;49.928;8.548;2023-04-22T00:24:43;5.43;;;5.03;;
7571;SDS011;3827;49.928;8.548;2023-04-22T00:27:10;5.03;;;4.53;;
7571;SDS011;3827;49.928;8.548;2023-04-22T00:29:37;4.43;;;4.10;;
7571;SDS011;3827;49.928;8.548;2023-04-22T00:32:04;4.70;;;4.13;;
7571;SDS011;3827;49.928;8.548;2023-04-22T00:34:31;3.67;;;3.30;;
7571;SDS011;3827;49.928;8.548;2023-04-22T00:36:58;4.03;;;3.72;;
7571;SDS011;3827;49.928;8.548;2023-04-22T00:39:24;3.67;;;3.38;;
7571;SDS011;3827;49.928;8.548;2023-04-22T00:41:53;3.20;;;3.00;;
7571;SDS011;3827;49.928;8.548;2023-04-22T00:44:21;3.55;;;3.25;;
7571;SDS011;3827;49.928;8.548;2023-04-22T00:46:48;3.80;;;3.50;;
7571;SDS011;3827;49.928;8.548;2023-04-22T00:49:15;4.93;;;4.38;;
7571;SDS011;3827;49.928;8.548;2023-04-22T00:51:43;5.75;;;5.25;;
7571;SDS011;3827;49.928;8.548;2023-04-22T00:54:09;5.55;;;5.05;;
7571;SDS011;3827;49.928;8.548;2023-04-22T00:56:36;4.30;;;3.90;;
7571;SDS011;3827;49.928;8.548;2023-04-22T00:59:05;4.63;;;4.23;;
7571;SDS011;3827;49.928;8.548;2023-04-22T01:01:33;3.47;;;3.17;;
7571;SDS011;3827;49.928;8.548;2023-04-22T01:04:01;4.32;;;3.95;;
7571;SDS011;3827;49.928;8.548;2023-04-22T01:06:29;3.47;;;3.20;;
7571;SDS011;3827;49.928;8.548;2023-04-22T01:08:56;4.13;;;3.83;;
7571;SDS011;3827;49.928;8.548;2023-04-22T01:11:23;3.60;;;3.30;;
7571;SDS011;3827;49.928;8.548;2023-04-22T01:13:50;3.60;;;3.30;;
7571;SDS011;3827;49.928;8.548;2023-04-22T01:16:19;9.77;;;8.48;;
7571;SDS011;3827;49.928;8.548;2023-04-22T01:18:48;4.88;;;4.47;;
7571;SDS011;3827;49.928;8.548;2023-04-22T01:21:15;4.50;;;4.07;;
7571;SDS011;3827;49.928;8.548;2023-04-22T01:23:44;4.25;;;3.80;;
7571;SDS011;3827;49.928;8.548;2023-04-22T01:26:11;4.20;;;3.90;;
7571;SDS011;3827;49.928;8.548;2023-04-22T01:28:38;4.25;;;3.92;;
7571;SDS011;3827;49.928;8.548;2023-04-22T01:31:05;4.95;;;4.10;;
7571;SDS011;3827;49.928;8.548;2023-04-22T01:33:32;4.23;;;3.83;;
7571;SDS011;3827;49.928;8.548;2023-04-22T01:35:59;4.20;;;3.80;;
7571;SDS011;3827;49.928;8.548;2023-04-22T01:38:26;4.53;;;4.07;;
7571;SDS011;3827;49.928;8.548;2023-04-22T01:40:58;5.43;;;4.00;;
7571;SDS011;3827;49.928;8.548;2023-04-22T01:43:26;4.45;;;4.07;;
7571;SDS011;3827;49.928;8.548;2023-04-22T01:45:54;4.50;;;4.10;;
7571;SDS011;3827;49.928;8.548;2023-04-22T01:48:21;4.40;;;4.00;;
7571;SDS011;3827;49.928;8.548;2023-04-22T01:50:48;5.00;;;4.15;;
7571;SDS011;3827;49.928;8.548;2023-04-22T01:53:15;4.75;;;4.28;;
7571;SDS011;3827;49.928;8.548;2023-04-22T01:55:42;4.47;;;4.07;;
7571;SDS011;3827;49.928;8.548;2023-04-22T01:58:10;4.82;;;4.20;;
7571;SDS011;3827;49.928;8.548;2023-04-22T02:00:37;6.53;;;4.10;;
7571;SDS011;3827;49.928;8.548;2023-04-22T02:03:03;4.70;;;4.30;;
7571;SDS011;3827;49.928;8.548;2023-04-22T02:05:30;5.03;;;4.50;;
7571;SDS011;3827;49.928;8.548;2023-04-22T02:07:57;5.70;;;4.85;;
7571;SDS011;3827;49.928;8.548;2023-04-22T02:10:24;5.07;;;4.57;;
7571;SDS011;3827;49.928;8.548;2023-04-22T02:12:51;5.15;;;4.75;;
7571;SDS011;3827;49.928;8.548;2023-04-22T02:15:19;4.85;;;4.45;;
7571;SDS011;3827;49.928;8.548;2023-04-22T02:17:47;4.65;;;4.35;;
7571;SDS011;3827;49.928;8.548;2023-04-22T02:20:14;5.20;;;4.72;;
7571;SDS011;3827;49.928;8.548;2023-04-22T02:22:41;5.10;;;4.70;;
7571;SDS011;3827;49.928;8.548;2023-04-22T02:25:09;4.53;;;4.13;;
7571;SDS011;3827;49.928;8.548;2023-04-22T02:27:38;5.10;;;4.60;;
7571;SDS011;3827;49.928;8.548;2023-04-22T02:30:05;4.90;;;4.50;;
7571;SDS011;3827;49.928;8.548;2023-04-22T02:32:34;4.65;;;4.25;;
7571;SDS011;3827;49.928;8.548;2023-04-22T02:35:03;5.13;;;4.70;;
7571;SDS011;3827;49.928;8.548;2023-04-22T02:37:30;4.87;;;4.43;;
7571;SDS011;3827;49.928;8.548;2023-04-22T02:39:57;5.00;;;4.57;;
7571;SDS011;3827;49.928;8.548;2023-04-22T02:42:24;5.00;;;4.60;;
7571;SDS011;3827;49.928;8.548;2023-04-22T02:44:50;4.90;;;4.50;;
7571;SDS011;3827;49.928;8.548;2023-04-22T02:47:17;5.30;;;4.80;;
7571;SDS011;3827;49.928;8.548;2023-04-22T02:49:45;5.20;;;4.80;;
7571;SDS011;3827;49.928;8.548;2023-04-22T02:52:12;5.22;;;4.82;;
7571;SDS011;3827;49.928;8.548;2023-04-22T02:54:39;5.18;;;4.68;;
7571;SDS011;3827;49.928;8.548;2023-04-22T02:57:06;4.90;;;4.50;;
7571;SDS011;3827;49.928;8.548;2023-04-22T02:59:33;5.03;;;4.45;;
7571;SDS011;3827;49.928;8.548;2023-04-22T03:02:00;4.88;;;4.40;;
7571;SDS011;3827;49.928;8.548;2023-04-22T03:04:27;4.70;;;4.30;;
7571;SDS011;3827;49.928;8.548;2023-04-22T03:06:56;4.65;;;4.25;;
7571;SDS011;3827;49.928;8.548;2023-04-22T03:09:22;5.03;;;4.63;;
7571;SDS011;3827;49.928;8.548;2023-04-22T03:11:49;4.95;;;4.55;;
7571;SDS011;3827;49.928;8.548;2023-04-22T03:14:16;4.40;;;4.10;;
7571;SDS011;3827;49.928;8.548;2023-04-22T03:16:43;5.25;;;4.75;;
7571;SDS011;3827;49.928;8.548;2023-04-22T03:19:10;4.68;;;4.28;;
7571;SDS011;3827;49.928;8.548;2023-04-22T03:21:36;4.50;;;4.20;;
7571;SDS011;3827;49.928;8.548;2023-04-22T03:24:05;4.10;;;3.80;;
7571;SDS011;3827;49.928;8.548;2023-04-22T03:26:32;4.50;;;4.20;;
7571;SDS011;3827;49.928;8.548;2023-04-22T03:28:58;4.20;;;3.90;;
7571;SDS011;3827;49.928;8.548;2023-04-22T03:31:26;4.32;;;4.03;;
7571;SDS011;3827;49.928;8.548;2023-04-22T03:33:53;4.97;;;4.57;;
7571;SDS011;3827;49.928;8.548;2023-04-22T03:36:20;5.10;;;4.47;;
7571;SDS011;3827;49.928;8.548;2023-04-22T03:38:47;5.07;;;4.68;;
7571;SDS011;3827;49.928;8.548;2023-04-22T03:41:15;4.50;;;4.20;;
7571;SDS011;3827;49.928;8.548;2023-04-22T03:43:42;5.22;;;4.72;;
7571;SDS011;3827;49.928;8.548;2023-04-22T03:46:08;4.72;;;4.32;;
7571;SDS011;3827;49.928;8.548;2023-04-22T03:48:38;5.20;;;4.75;;
7571;SDS011;3827;49.928;8.548;2023-04-22T03:51:06;4.75;;;4.45;;
7571;SDS011;3827;49.928;8.548;2023-04-22T03:53:33;4.68;;;4.38;;
7571;SDS011;3827;49.928;8.548;2023-04-22T03:55:59;5.25;;;4.85;;
7571;SDS011;3827;49.928;8.548;2023-04-22T03:58:28;5.15;;;4.65;;
7571;SDS011;3827;49.928;8.548;2023-04-22T04:00:54;4.63;;;4.22;;
7571;SDS011;3827;49.928;8.548;2023-04-22T04:03:21;4.95;;;4.63;;
7571;SDS011;3827;49.928;8.548;2023-04-22T04:05:48;4.75;;;4.35;;
7571;SDS011;3827;49.928;8.548;2023-04-22T04:08:15;5.37;;;4.87;;
7571;SDS011;3827;49.928;8.548;2023-04-22T04:10:42;5.43;;;5.03;;
7571;SDS011;3827;49.928;8.548;2023-04-22T04:13:09;4.93;;;4.53;;
7571;SDS011;3827;49.928;8.548;2023-04-22T04:15:37;5.47;;;4.97;;
7571;SDS011;3827;49.928;8.548;2023-04-22T04:18:04;5.40;;;4.90;;
7571;SDS011;3827;49.928;8.548;2023-04-22T04:20:31;5.93;;;5.45;;
7571;SDS011;3827;49.928;8.548;2023-04-22T04:22:57;5.65;;;5.25;;
7571;SDS011;3827;49.928;8.548;2023-04-22T04:25:24;5.50;;;5.10;;
7571;SDS011;3827;49.928;8.548;2023-04-22T04:27:53;5.70;;;5.30;;
7571;SDS011;3827;49.928;8.548;2023-04-22T04:30:20;5.47;;;5.00;;
7571;SDS011;3827;49.928;8.548;2023-04-22T04:32:49;5.20;;;4.80;;
7571;SDS011;3827;49.928;8.548;2023-04-22T04:35:16;6.07;;;5.47;;
7571;SDS011;3827;49.928;8.548;2023-04-22T04:37:44;5.30;;;4.80;;
7571;SDS011;3827;49.928;8.548;2023-04-22T04:40:11;6.03;;;5.43;;
7571;SDS011;3827;49.928;8.548;2023-04-22T04:42:38;5.30;;;4.90;;
7571;SDS011;3827;49.928;8.548;2023-04-22T04:47:33;5.63;;;4.93;;
7571;SDS011;3827;49.928;8.548;2023-04-22T04:50:01;4.93;;;4.53;;
7571;SDS011;3827;49.928;8.548;2023-04-22T04:52:29;6.20;;;4.93;;
7571;SDS011;3827;49.928;8.548;2023-04-22T04:54:56;4.90;;;4.50;;
7571;SDS011;3827;49.928;8.548;2023-04-22T04:57:23;5.15;;;4.75;;
7571;SDS011;3827;49.928;8.548;2023-04-22T04:59:50;5.15;;;4.75;;
7571;SDS011;3827;49.928;8.548;2023-04-22T05:02:17;5.27;;;4.87;;
7571;SDS011;3827;49.928;8.548;2023-04-22T05:04:44;4.90;;;4.50;;
7571;SDS011;3827;49.928;8.548;2023-04-22T05:07:12;5.15;;;4.75;;
7571;SDS011;3827;49.928;8.548;2023-04-22T05:09:39;4.70;;;4.30;;
7571;SDS011;3827;49.928;8.548;2023-04-22T05:12:06;4.82;;;4.43;;
7571;SDS011;3827;49.928;8.548;2023-04-22T05:14:32;4.43;;;4.13;;
7571;SDS011;3827;49.928;8.548;2023-04-22T05:16:59;4.35;;;3.97;;
7571;SDS011;3827;49.928;8.548;2023-04-22T05:19:27;4.37;;;4.07;;
7571;SDS011;3827;49.928;8.548;2023-04-22T05:21:53;5.00;;;4.50;;
7571;SDS011;3827;49.928;8.548;2023-04-22T05:24:22;5.63;;;4.65;;
7571;SDS011;3827;49.928;8.548;2023-04-22T05:26:48;4.82;;;4.47;;
7571;SDS011;3827;49.928;8.548;2023-04-22T05:29:15;4.50;;;4.10;;
7571;SDS011;3827;49.928;8.548;2023-04-22T05:31:42;4.30;;;4.00;;
7571;SDS011;3827;49.928;8.548;2023-04-22T05:34:09;4.75;;;4.35;;
7571;SDS011;3827;49.928;8.548;2023-04-22T05:36:36;4.80;;;4.40;;
7571;SDS011;3827;49.928;8.548;2023-04-22T05:39:03;5.22;;;4.80;;
7571;SDS011;3827;49.928;8.548;2023-04-22T05:41:31;5.30;;;4.90;;
7571;SDS011;3827;49.928;8.548;2023-04-22T05:43:58;4.90;;;4.50;;
7571;SDS011;3827;49.928;8.548;2023-04-22T05:46:25;4.50;;;4.20;;
7571;SDS011;3827;49.928;8.548;2023-04-22T05:48:52;5.10;;;4.68;;
7571;SDS011;3827;49.928;8.548;2023-04-22T05:51:19;5.05;;;4.60;;
7571;SDS011;3827;49.928;8.548;2023-04-22T05:53:47;4.30;;;4.00;;
7571;SDS011;3827;49.928;8.548;2023-04-22T05:56:14;3.97;;;3.70;;
7571;SDS011;3827;49.928;8.548;2023-04-22T05:58:42;4.50;;;4.18;;
7571;SDS011;3827;49.928;8.548;2023-04-22T06:01:09;4.70;;;4.30;;
7571;SDS011;3827;49.928;8.548;2023-04-22T06:03:36;5.10;;;4.55;;
7571;SDS011;3827;49.928;8.548;2023-04-22T06:06:03;4.72;;;4.35;;
7571;SDS011;3827;49.928;8.548;2023-04-22T06:08:30;5.10;;;4.60;;
7571;SDS011;3827;49.928;8.548;2023-04-22T06:10:57;4.82;;;4.50;;
7571;SDS011;3827;49.928;8.548;2023-04-22T06:13:24;4.95;;;4.55;;
7571;SDS011;3827;49.928;8.548;2023-04-22T06:15:53;4.78;;;4.38;;
7571;SDS011;3827;49.928;8.548;2023-04-22T06:18:20;5.35;;;4.85;;
7571;SDS011;3827;49.928;8.548;2023-04-22T06:20:47;5.50;;;5.10;;
7571;SDS011;3827;49.928;8.548;2023-04-22T06:23:14;5.45;;;5.00;;
7571;SDS011;3827;49.928;8.548;2023-04-22T06:25:41;6.05;;;5.45;;
7571;SDS011;3827;49.928;8.548;2023-04-22T06:28:08;5.68;;;5.18;;
7571;SDS011;3827;49.928;8.548;2023-04-22T06:30:35;6.03;;;5.53;;
7571;SDS011;3827;49.928;8.548;2023-04-22T06:33:03;5.93;;;5.35;;
7571;SDS011;3827;49.928;8.548;2023-04-22T06:35:30;6.28;;;5.70;;
7571;SDS011;3827;49.928;8.548;2023-04-22T06:37:57;8.13;;;7.43;;
7571;SDS011;3827;49.928;8.548;2023-04-22T06:40:23;7.10;;;6.10;;
7571;SDS011;3827;49.928;8.548;2023-04-22T06:42:50;6.80;;;5.60;;
7571;SDS011;3827;49.928;8.548;2023-04-22T06:45:18;5.10;;;4.80;;
7571;SDS011;3827;49.928;8.548;2023-04-22T06:47:45;5.50;;;5.00;;
7571;SDS011;3827;49.928;8.548;2023-04-22T06:50:13;5.25;;;4.85;;
7571;SDS011;3827;49.928;8.548;2023-04-22T06:52:40;4.57;;;4.28;;
7571;SDS011;3827;49.928;8.548;2023-04-22T06:55:07;5.18;;;4.75;;
7571;SDS011;3827;49.928;8.548;2023-04-22T06:57:34;4.95;;;4.55;;
7571;SDS011;3827;49.928;8.548;2023-04-22T07:00:01;4.93;;;4.55;;
7571;SDS011;3827;49.928;8.548;2023-04-22T07:02:29;4.70;;;4.30;;
7571;SDS011;3827;49.928;8.548;2023-04-22T07:04:56;5.40;;;4.90;;
7571;SDS011;3827;49.928;8.548;2023-04-22T07:07:24;4.20;;;3.90;;
7571;SDS011;3827;49.928;8.548;2023-04-22T07:09:51;5.00;;;4.70;;
7571;SDS011;3827;49.928;8.548;2023-04-22T07:12:17;5.00;;;4.60;;
7571;SDS011;3827;49.928;8.548;2023-04-22T07:14:44;5.40;;;4.97;;
7571;SDS011;3827;49.928;8.548;2023-04-22T07:19:40;5.65;;;4.90;;
7571;SDS011;3827;49.928;8.548;2023-04-22T07:22:07;5.18;;;4.68;;
7571;SDS011;3827;49.928;8.548;2023-04-22T07:24:36;4.80;;;4.40;;
7571;SDS011;3827;49.928;8.548;2023-04-22T07:27:03;4.85;;;4.45;;
7571;SDS011;3827;49.928;8.548;2023-04-22T07:29:30;5.35;;;4.88;;
7571;SDS011;3827;49.928;8.548;2023-04-22T07:31:56;4.60;;;4.28;;
7571;SDS011;3827;49.928;8.548;2023-04-22T07:34:23;4.80;;;4.30;;
7571;SDS011;3827;49.928;8.548;2023-04-22T07:36:50;5.20;;;4.45;;
7571;SDS011;3827;49.928;8.548;2023-04-22T07:39:17;4.60;;;4.25;;
7571;SDS011;3827;49.928;8.548;2023-04-22T07:41:45;5.03;;;4.63;;
7571;SDS011;3827;49.928;8.548;2023-04-22T07:44:12;4.82;;;4.53;;
7571;SDS011;3827;49.928;8.548;2023-04-22T07:46:42;5.20;;;4.70;;
7571;SDS011;3827;49.928;8.548;2023-04-22T07:49:09;5.43;;;5.00;;
7571;SDS011;3827;49.928;8.548;2023-04-22T07:51:37;5.18;;;4.72;;
7571;SDS011;3827;49.928;8.548;2023-04-22T07:54:05;5.65;;;5.18;;
7571;SDS011;3827;49.928;8.548;2023-04-22T07:56:31;4.90;;;4.60;;
7571;SDS011;3827;49.928;8.548;2023-04-22T07:59:00;5.40;;;5.00;;
7571;SDS011;3827;49.928;8.548;2023-04-22T08:01:27;5.57;;;5.00;;
7571;SDS011;3827;49.928;8.548;2023-04-22T08:03:55;4.55;;;4.25;;
7571;SDS011;3827;49.928;8.548;2023-04-22T08:06:21;5.20;;;4.80;;
7571;SDS011;3827;49.928;8.548;2023-04-22T08:08:48;5.63;;;5.22;;
7571;SDS011;3827;49.928;8.548;2023-04-22T08:11:15;6.03;;;5.45;;
7571;SDS011;3827;49.928;8.548;2023-04-22T08:13:42;6.47;;;5.88;;
7571;SDS011;3827;49.928;8.548;2023-04-22T08:16:10;5.50;;;5.10;;
7571;SDS011;3827;49.928;8.548;2023-04-22T08:18:37;6.40;;;5.80;;
7571;SDS011;3827;49.928;8.548;2023-04-22T08:21:04;5.82;;;5.43;;
7571;SDS011;3827;49.928;8.548;2023-04-22T08:23:31;5.53;;;5.13;;
7571;SDS011;3827;49.928;8.548;2023-04-22T08:25:58;5.75;;;5.25;;
7571;SDS011;3827;49.928;8.548;2023-04-22T08:28:25;5.80;;;5.40;;
7571;SDS011;3827;49.928;8.548;2023-04-22T08:30:52;5.60;;;5.15;;
7571;SDS011;3827;49.928;8.548;2023-04-22T08:33:20;5.57;;;5.10;;
7571;SDS011;3827;49.928;8.548;2023-04-22T08:35:46;5.30;;;4.90;;
7571;SDS011;3827;49.928;8.548;2023-04-22T08:38:13;5.07;;;4.65;;
7571;SDS011;3827;49.928;8.548;2023-04-22T08:40:40;4.57;;;4.28;;
7571;SDS011;3827;49.928;8.548;2023-04-22T08:43:07;4.82;;;4.43;;
7571;SDS011;3827;49.928;8.548;2023-04-22T08:48:04;4.85;;;4.45;;
7571;SDS011;3827;49.928;8.548;2023-04-22T08:50:33;4.72;;;3.90;;
7571;SDS011;3827;49.928;8.548;2023-04-22T08:53:03;4.47;;;4.15;;
7571;SDS011;3827;49.928;8.548;2023-04-22T08:55:30;4.60;;;4.20;;
7571;SDS011;3827;49.928;8.548;2023-04-22T08:57:58;4.75;;;4.32;;
7571;SDS011;3827;49.928;8.548;2023-04-22T09:00:28;5.25;;;4.78;;
7571;SDS011;3827;49.928;8.548;2023-04-22T09:02:56;5.00;;;4.60;;
7571;SDS011;3827;49.928;8.548;2023-04-22T09:05:26;5.05;;;4.55;;
7571;SDS011;3827;49.928;8.548;2023-04-22T09:07:55;5.50;;;4.80;;
7571;SDS011;3827;49.928;8.548;2023-04-22T09:10:23;5.68;;;5.07;;
7571;SDS011;3827;49.928;8.548;2023-04-22T09:12:50;5.63;;;5.13;;
7571;SDS011;3827;49.928;8.548;2023-04-22T09:15:18;5.90;;;5.40;;
7571;SDS011;3827;49.928;8.548;2023-04-22T09:17:45;5.80;;;5.20;;
7571;SDS011;3827;49.928;8.548;2023-04-22T09:20:11;6.40;;;5.82;;
7571;SDS011;3827;49.928;8.548;2023-04-22T09:22:40;6.28;;;5.68;;
7571;SDS011;3827;49.928;8.548;2023-04-22T09:25:15;5.88;;;5.38;;
7571;SDS011;3827;49.928;8.548;2023-04-22T09:27:42;5.60;;;5.10;;
7571;SDS011;3827;49.928;8.548;2023-04-22T09:30:12;5.30;;;4.90;;
7571;SDS011;3827;49.928;8.548;2023-04-22T09:32:39;5.57;;;5.18;;
7571;SDS011;3827;49.928;8.548;2023-04-22T09:35:06;5.50;;;5.00;;
7571;SDS011;3827;49.928;8.548;2023-04-22T09:37:34;4.70;;;4.30;;
7571;SDS011;3827;49.928;8.548;2023-04-22T09:40:00;5.00;;;4.60;;
7571;SDS011;3827;49.928;8.548;2023-04-22T09:42:29;4.60;;;4.20;;
7571;SDS011;3827;49.928;8.548;2023-04-22T09:44:56;4.15;;;3.75;;
7571;SDS011;3827;49.928;8.548;2023-04-22T09:47:24;3.63;;;3.33;;
7571;SDS011;3827;49.928;8.548;2023-04-22T09:49:51;4.57;;;4.18;;
7571;SDS011;3827;49.928;8.548;2023-04-22T09:52:21;4.60;;;4.20;;
7571;SDS011;3827;49.928;8.548;2023-04-22T09:54:51;4.20;;;3.80;;
7571;SDS011;3827;49.928;8.548;2023-04-22T09:57:18;3.63;;;3.33;;
7571;SDS011;3827;49.928;8.548;2023-04-22T09:59:47;4.43;;;4.13;;
7571;SDS011;3827;49.928;8.548;2023-04-22T10:04:56;4.43;;;4.10;;
7571;SDS011;3827;49.928;8.548;2023-04-22T10:07:24;4.22;;;3.83;;
7571;SDS011;3827;49.928;8.548;2023-04-22T10:09:55;3.90;;;3.60;;
7571;SDS011;3827;49.928;8.548;2023-04-22T10:12:22;3.90;;;3.60;;
7571;SDS011;3827;49.928;8.548;2023-04-22T10:14:51;3.47;;;3.00;;
7571;SDS011;3827;49.928;8.548;2023-04-22T10:17:18;3.30;;;3.10;;
7571;SDS011;3827;49.928;8.548;2023-04-22T10:19:45;3.40;;;3.10;;
7571;SDS011;3827;49.928;8.548;2023-04-22T10:22:14;3.23;;;2.60;;
7571;SDS011;3827;49.928;8.548;2023-04-22T10:24:41;3.33;;;2.63;;
7571;SDS011;3827;49.928;8.548;2023-04-22T10:27:08;2.55;;;2.28;;
7571;SDS011;3827;49.928;8.548;2023-04-22T10:29:43;4.70;;;2.50;;
7571;SDS011;3827;49.928;8.548;2023-04-22T10:32:26;2.63;;;2.47;;
7571;SDS011;3827;49.928;8.548;2023-04-22T10:35:06;2.53;;;2.33;;
7571;SDS011;3827;49.928;8.548;2023-04-22T10:37:35;2.78;;;2.50;;
7571;SDS011;3827;49.928;8.548;2023-04-22T10:40:06;2.85;;;2.40;;
7571;SDS011;3827;49.928;8.548;2023-04-22T10:42:35;3.03;;;2.40;;
7571;SDS011;3827;49.928;8.548;2023-04-22T10:45:05;2.20;;;2.10;;
7571;SDS011;3827;49.928;8.548;2023-04-22T10:47:34;2.30;;;2.10;;
7571;SDS011;3827;49.928;8.548;2023-04-22T10:50:09;2.58;;;2.17;;
7571;SDS011;3827;49.928;8.548;2023-04-22T10:52:42;3.15;;;2.40;;
7571;SDS011;3827;49.928;8.548;2023-04-22T10:55:11;2.63;;;2.42;;
7571;SDS011;3827;49.928;8.548;2023-04-22T10:57:39;2.85;;;2.22;;
7571;SDS011;3827;49.928;8.548;2023-04-22T11:00:20;2.38;;;2.15;;
7571;SDS011;3827;49.928;8.548;2023-04-22T11:03:11;2.47;;;2.28;;
7571;SDS011;3827;49.928;8.548;2023-04-22T11:05:43;3.53;;;2.47;;
7571;SDS011;3827;49.928;8.548;2023-04-22T11:08:14;3.80;;;2.40;;
7571;SDS011;3827;49.928;8.548;2023-04-22T11:10:46;2.10;;;2.00;;
7571;SDS011;3827;49.928;8.548;2023-04-22T11:13:14;1.90;;;1.70;;
7571;SDS011;3827;49.928;8.548;2023-04-22T11:15:43;2.50;;;1.77;;
7571;SDS011;3827;49.928;8.548;2023-04-22T11:18:19;2.20;;;1.27;;
7571;SDS011;3827;49.928;8.548;2023-04-22T11:20:48;1.88;;;1.45;;
7571;SDS011;3827;49.928;8.548;2023-04-22T11:23:17;1.90;;;1.50;;
7571;SDS011;3827;49.928;8.548;2023-04-22T11:25:45;2.00;;;1.40;;
7571;SDS011;3827;49.928;8.548;2023-04-22T11:28:12;2.78;;;1.70;;
7571;SDS011;3827;49.928;8.548;2023-04-22T11:30:39;1.60;;;1.38;;
7571;SDS011;3827;49.928;8.548;2023-04-22T11:33:06;3.03;;;1.20;;
7571;SDS011;3827;49.928;8.548;2023-04-22T11:35:34;2.03;;;1.42;;
7571;SDS011;3827;49.928;8.548;2023-04-22T11:38:02;4.10;;;1.63;;
7571;SDS011;3827;49.928;8.548;2023-04-22T11:40:31;1.90;;;1.70;;
7571;SDS011;3827;49.928;8.548;2023-04-22T11:43:00;2.25;;;1.60;;
7571;SDS011;3827;49.928;8.548;2023-04-22T11:45:29;1.40;;;1.30;;
7571;SDS011;3827;49.928;8.548;2023-04-22T11:47:57;3.17;;;1.63;;
7571;SDS011;3827;49.928;8.548;2023-04-22T11:50:27;2.42;;;1.40;;
7571;SDS011;3827;49.928;8.548;2023-04-22T11:52:58;2.47;;;1.30;;
7571;SDS011;3827;49.928;8.548;2023-04-22T11:55:27;1.40;;;1.20;;
7571;SDS011;3827;49.928;8.548;2023-04-22T11:57:56;3.13;;;1.33;;
7571;SDS011;3827;49.928;8.548;2023-04-22T12:00:27;2.97;;;1.58;;
7571;SDS011;3827;49.928;8.548;2023-04-22T12:02:56;2.85;;;1.27;;
7571;SDS011;3827;49.928;8.548;2023-04-22T12:05:36;2.97;;;1.58;;
7571;SDS011;3827;49.928;8.548;2023-04-22T12:08:09;1.70;;;1.20;;
7571;SDS011;3827;49.928;8.548;2023-04-22T12:10:38;1.95;;;1.50;;
7571;SDS011;3827;49.928;8.548;2023-04-22T12:13:06;2.40;;;1.27;;
7571;SDS011;3827;49.928;8.548;2023-04-22T12:15:41;2.10;;;1.30;;
7571;SDS011;3827;49.928;8.548;2023-04-22T12:18:08;2.45;;;1.30;;
7571;SDS011;3827;49.928;8.548;2023-04-22T12:20:36;1.42;;;1.30;;
7571;SDS011;3827;49.928;8.548;2023-04-22T12:23:04;2.03;;;1.30;;
7571;SDS011;3827;49.928;8.548;2023-04-22T12:25:38;3.25;;;1.50;;
7571;SDS011;3827;49.928;8.548;2023-04-22T12:28:05;2.00;;;1.65;;
7571;SDS011;3827;49.928;8.548;2023-04-22T12:30:32;1.52;;;1.40;;
7571;SDS011;3827;49.928;8.548;2023-04-22T12:32:59;2.28;;;1.58;;
7571;SDS011;3827;49.928;8.548;2023-04-22T12:35:26;2.15;;;1.40;;
7571;SDS011;3827;49.928;8.548;2023-04-22T12:37:53;1.60;;;1.33;;
7571;SDS011;3827;49.928;8.548;2023-04-22T12:40:21;1.67;;;1.30;;
7571;SDS011;3827;49.928;8.548;2023-04-22T12:42:48;3.88;;;1.50;;
7571;SDS011;3827;49.928;8.548;2023-04-22T12:45:15;1.80;;;1.30;;
7571;SDS011;3827;49.928;8.548;2023-04-22T12:47:42;2.90;;;1.50;;
7571;SDS011;3827;49.928;8.548;2023-04-22T12:50:09;2.28;;;1.35;;
7571;SDS011;3827;49.928;8.548;2023-04-22T12:52:36;2.25;;;1.50;;
7571;SDS011;3827;49.928;8.548;2023-04-22T12:55:03;4.85;;;1.60;;
7571;SDS011;3827;49.928;8.548;2023-04-22T12:57:31;2.22;;;1.30;;
7571;SDS011;3827;49.928;8.548;2023-04-22T12:59:58;1.88;;;1.50;;
7571;SDS011;3827;49.928;8.548;2023-04-22T13:02:25;2.50;;;1.30;;
7571;SDS011;3827;49.928;8.548;2023-04-22T13:04:52;1.67;;;1.50;;
7571;SDS011;3827;49.928;8.548;2023-04-22T13:07:19;2.28;;;1.38;;
7571;SDS011;3827;49.928;8.548;2023-04-22T13:09:45;2.45;;;1.40;;
7571;SDS011;3827;49.928;8.548;2023-04-22T13:12:12;2.60;;;1.50;;
7571;SDS011;3827;49.928;8.548;2023-04-22T13:14:40;2.45;;;1.40;;
7571;SDS011;3827;49.928;8.548;2023-04-22T13:17:08;2.42;;;1.50;;
7571;SDS011;3827;49.928;8.548;2023-04-22T13:19:35;1.77;;;1.40;;
7571;SDS011;3827;49.928;8.548;2023-04-22T13:22:01;1.85;;;1.75;;
7571;SDS011;3827;49.928;8.548;2023-04-22T13:24:28;2.97;;;1.40;;
7571;SDS011;3827;49.928;8.548;2023-04-22T13:26:55;2.40;;;1.52;;
7571;SDS011;3827;49.928;8.548;2023-04-22T13:29:22;1.77;;;1.60;;
7571;SDS011;3827;49.928;8.548;2023-04-22T13:31:51;1.47;;;1.30;;
7571;SDS011;3827;49.928;8.548;2023-04-22T13:34:18;1.60;;;1.50;;
7571;SDS011;3827;49.928;8.548;2023-04-22T13:36:45;2.17;;;1.35;;
7571;SDS011;3827;49.928;8.548;2023-04-22T13:39:12;5.72;;;1.55;;
7571;SDS011;3827;49.928;8.548;2023-04-22T13:41:39;2.08;;;1.40;;
7571;SDS011;3827;49.928;8.548;2023-04-22T13:44:07;2.03;;;1.20;;
7571;SDS011;3827;49.928;8.548;2023-04-22T13:46:36;2.60;;;1.38;;
7571;SDS011;3827;49.928;8.548;2023-04-22T13:49:04;1.95;;;1.35;;
7571;SDS011;3827;49.928;8.548;2023-04-22T13:51:31;2.33;;;1.50;;
7571;SDS011;3827;49.928;8.548;2023-04-22T13:53:58;1.70;;;1.50;;
7571;SDS011;3827;49.928;8.548;2023-04-22T13:56:25;1.75;;;1.40;;
7571;SDS011;3827;49.928;8.548;2023-04-22T13:58:52;2.10;;;1.40;;
7571;SDS011;3827;49.928;8.548;2023-04-22T14:01:19;2.63;;;1.40;;
7571;SDS011;3827;49.928;8.548;2023-04-22T14:03:46;2.72;;;1.65;;
7571;SDS011;3827;49.928;8.548;2023-04-22T14:06:16;2.05;;;1.45;;
7571;SDS011;3827;49.928;8.548;2023-04-22T14:08:43;4.68;;;1.33;;
7571;SDS011;3827;49.928;8.548;2023-04-22T14:11:10;2.67;;;1.70;;
7571;SDS011;3827;49.928;8.548;2023-04-22T14:13:38;1.92;;;1.50;;
7571;SDS011;3827;49.928;8.548;2023-04-22T14:16:05;2.20;;;1.30;;
7571;SDS011;3827;49.928;8.548;2023-04-22T14:18:34;5.57;;;1.55;;
7571;SDS011;3827;49.928;8.548;2023-04-22T14:21:01;4.68;;;1.50;;
7571;SDS011;3827;49.928;8.548;2023-04-22T14:23:30;3.13;;;1.60;;
7571;SDS011;3827;49.928;8.548;2023-04-22T14:25:57;2.88;;;1.20;;
7571;SDS011;3827;49.928;8.548;2023-04-22T14:28:24;2.83;;;1.27;;
7571;SDS011;3827;49.928;8.548;2023-04-22T14:30:52;2.97;;;1.30;;
7571;SDS011;3827;49.928;8.548;2023-04-22T14:33:19;2.00;;;1.15;;
7571;SDS011;3827;49.928;8.548;2023-04-22T14:35:48;3.83;;;2.67;;
7571;SDS011;3827;49.928;8.548;2023-04-22T14:38:15;5.47;;;3.50;;
7571;SDS011;3827;49.928;8.548;2023-04-22T14:40:43;1.60;;;1.50;;
7571;SDS011;3827;49.928;8.548;2023-04-22T14:43:10;2.88;;;1.67;;
7571;SDS011;3827;49.928;8.548;2023-04-22T14:45:36;2.03;;;1.42;;
7571;SDS011;3827;49.928;8.548;2023-04-22T14:48:04;2.45;;;1.70;;
7571;SDS011;3827;49.928;8.548;2023-04-22T14:50:31;1.80;;;1.40;;
7571;SDS011;3827;49.928;8.548;2023-04-22T14:52:58;2.47;;;1.42;;
7571;SDS011;3827;49.928;8.548;2023-04-22T14:55:25;1.20;;;1.10;;
7571;SDS011;3827;49.928;8.548;2023-04-22T14:57:54;3.60;;;1.55;;
7571;SDS011;3827;49.928;8.548;2023-04-22T15:00:21;2.17;;;1.45;;
7571;SDS011;3827;49.928;8.548;2023-04-22T15:02:49;2.97;;;1.57;;
7571;SDS011;3827;49.928;8.548;2023-04-22T15:05:16;1.53;;;1.40;;
7571;SDS011;3827;49.928;8.548;2023-04-22T15:07:42;3.70;;;1.60;;
7571;SDS011;3827;49.928;8.548;2023-04-22T15:10:09;3.72;;;1.70;;
7571;SDS011;3827;49.928;8.548;2023-04-22T15:12:38;2.20;;;1.50;;
7571;SDS011;3827;49.928;8.548;2023-04-22T15:15:07;1.90;;;1.50;;
7571;SDS011;3827;49.928;8.548;2023-04-22T15:17:37;3.50;;;1.17;;
7571;SDS011;3827;49.928;8.548;2023-04-22T15:20:04;3.17;;;1.33;;
7571;SDS011;3827;49.928;8.548;2023-04-22T15:22:31;2.55;;;1.83;;
7571;SDS011;3827;49.928;8.548;2023-04-22T15:24:58;3.78;;;1.65;;
7571;SDS011;3827;49.928;8.548;2023-04-22T15:27:25;2.33;;;1.67;;